Time;durP1;ratioP1;P1;durP2;ratioP2;P2;SDS_P1;SDS_P2;PMS_P1;PMS_P2;Temp;Humidity;BMP_temperature;BMP_pressure;BME280_temperature;BME280_humidity;BME280_pressure;Samples;Min_cycle;Max_cycle;Signal;HPM_P1;HPM_P2
2021/10/21 00:01:18;;;;;;;;;;;;;;;;;;5043507;28;19925;-61
2021/10/21 00:03:45;;;;;;;;;;;;;;;;;;5048378;28;19925;-58
2021/10/21 00:06:12;;;;;;;;;;;;;;;;;;5050171;28;20377;-60
2021/10/21 00:08:39;;;;;;;;;;;;;;;;;;5048609;28;20442;-59
2021/10/21 00:11:06;;;;;;;;;;;;;;;;;;5039631;28;20377;-59
2021/10/21 00:13:33;;;;;;;;;;;;;;;;;;5044369;28;20388;-59
2021/10/21 00:16:00;;;;;;;;;;;;;;;;;;5041754;28;19937;-59
2021/10/21 00:18:27;;;;;;;;;;;;;;;;;;5048942;28;19940;-59
2021/10/21 00:20:54;;;;;;;;;;;;;;;;;;5046065;28;19924;-57
2021/10/21 00:23:20;;;;;;;;;;;;;;;;;;5044926;28;19933;-59
2021/10/21 00:25:47;;;;;;;;;;;;;;;;;;5050378;28;20373;-57
2021/10/21 00:28:15;;;;;;;;;;;;;;;;;;5046759;28;20336;-59
2021/10/21 00:30:41;;;;;;;;;;;;;;;;;;5043916;28;20396;-59
2021/10/21 00:33:08;;;;;;;;;;;;;;;;;;5047792;28;20224;-57
2021/10/21 00:35:35;;;;;;;;;;;;;;;;;;5048317;28;19929;-59
2021/10/21 00:38:02;;;;;;;;;;;;;;;;;;5047540;28;20295;-58
2021/10/21 00:40:29;;;;;;;;;;;;;;;;;;5045710;28;19936;-55
2021/10/21 00:42:56;;;;;;;;;;;;;;;;;;5048002;28;20590;-56
2021/10/21 00:45:23;;;;;;;;;;;;;;;;;;5043825;28;19932;-58
2021/10/21 00:47:50;;;;;;;;;;;;;;;;;;5047036;28;19928;-57
2021/10/21 00:50:17;;;;;;;;;;;;;;;;;;5046256;28;19925;-59
2021/10/21 00:52:44;;;;;;;;;;;;;;;;;;5048562;28;19932;-60
2021/10/21 00:55:12;;;;;;;;;;;;;;;;;;5043632;28;19933;-58
2021/10/21 00:57:39;;;;;;;;;;;;;;;;;;5043709;28;19929;-61
2021/10/21 01:00:06;;;;;;;;;;;;;;;;;;5042737;28;19947;-59
2021/10/21 01:02:33;;;;;;;;;;;;;;;;;;5041696;28;19932;-59
2021/10/21 01:05:00;;;;;;;;;;;;;;;;;;5043856;28;19925;-60
2021/10/21 01:07:28;;;;;;;;;;;;;;;;;;5046103;28;19933;-57
2021/10/21 01:09:55;;;;;;;;;;;;;;;;;;5045889;28;19925;-59
2021/10/21 01:12:22;;;;;;;;;;;;;;;;;;5047023;28;19924;-60
2021/10/21 01:14:49;;;;;;;;;;;;;;;;;;5048853;28;19925;-57
2021/10/21 01:17:16;;;;;;;;;;;;;;;;;;5047479;28;19964;-58
2021/10/21 01:19:43;;;;;;;;;;;;;;;;;;5050160;28;19929;-57
2021/10/21 01:22:10;;;;;;;;;;;;;;;;;;5052104;28;19952;-56
2021/10/21 01:24:37;;;;;;;;;;;;;;;;;;5052052;28;19925;-58
2021/10/21 01:27:03;;;;;;;;;;;;;;;;;;5047621;28;20299;-57
2021/10/21 01:29:31;;;;;;;;;;;;;;;;;;5050258;28;20300;-59
2021/10/21 01:31:58;;;;;;;;;;;;;;;;;;5048274;28;20016;-59
2021/10/21 01:34:25;;;;;;;;;;;;;;;;;;5052535;28;19931;-61
2021/10/21 01:36:52;;;;;;;;;;;;;;;;;;5052006;28;19925;-56
2021/10/21 01:39:19;;;;;;;;;;;;;;;;;;5047429;28;20362;-58
2021/10/21 01:41:46;;;;;;;;;;;;;;;;;;5051393;28;19933;-56
2021/10/21 01:44:13;;;;;;;;;;;;;;;;;;5046191;28;19925;-56
2021/10/21 01:46:40;;;;;;;;;;;;;;;;;;5051038;28;19932;-53
2021/10/21 01:49:07;;;;;;;;;;;;;;;;;;5053261;28;19925;-55
2021/10/21 01:51:34;;;;;;;;;;;;;;;;;;5047275;28;19932;-58
2021/10/21 01:54:01;;;;;;;;;;;;;;;;;;5052585;28;20369;-60
2021/10/21 01:56:28;;;;;;;;;;;;;;;;;;5048694;28;19932;-60
2021/10/21 01:58:55;;;;;;;;;;;;;;;;;;5049413;28;19925;-60
2021/10/21 02:01:22;;;;;;;;;;;;;;;;;;5045673;28;19924;-56
2021/10/21 02:03:49;;;;;;;;;;;;;;;;;;5054855;28;19925;-60
2021/10/21 02:06:16;;;;;;;;;;;;;;;;;;5043429;28;20315;-61
2021/10/21 02:08:43;;;;;;;;;;;;;;;;;;5050539;28;19925;-60
2021/10/21 02:11:10;;;;;;;;;;;;;;;;;;5049890;28;20404;-60
2021/10/21 02:13:37;;;;;;;;;;;;;;;;;;5049976;28;20296;-59
2021/10/21 02:16:04;;;;;;;;;;;;;;;;;;5048985;28;19936;-59
2021/10/21 02:18:31;;;;;;;;;;;;;;;;;;5050628;28;19929;-60
2021/10/21 02:20:58;;;;;;;;;;;;;;;;;;5050698;28;20012;-61
2021/10/21 02:23:25;;;;;;;;;;;;;;;;;;5047410;28;20444;-59
2021/10/21 02:25:52;;;;;;;;;;;;;;;;;;5047813;28;20031;-58
2021/10/21 02:28:19;;;;;;;;;;;;;;;;;;5049113;28;19925;-61
2021/10/21 02:30:46;;;;;;;;;;;;;;;;;;5050276;28;19924;-59
2021/10/21 02:33:13;;;;;;;;;;;;;;;;;;5047280;28;19925;-59
2021/10/21 02:35:40;;;;;;;;;;;;;;;;;;5049017;28;19925;-58
2021/10/21 02:38:07;;;;;;;;;;;;;;;;;;5048111;28;19944;-59
2021/10/21 02:40:34;;;;;;;;;;;;;;;;;;5048029;28;20388;-57
2021/10/21 02:43:01;;;;;;;;;;;;;;;;;;5047836;28;20304;-55
2021/10/21 02:45:28;;;;;;;;;;;;;;;;;;5051063;28;19925;-56
2021/10/21 02:47:55;;;;;;;;;;;;;;;;;;5048970;28;19931;-58
2021/10/21 02:50:22;;;;;;;;;;;;;;;;;;5046579;28;19925;-59
2021/10/21 02:52:49;;;;;;;;;;;;;;;;;;5048959;28;20373;-59
2021/10/21 02:55:16;;;;;;;;;;;;;;;;;;5048548;28;19925;-58
2021/10/21 02:57:43;;;;;;;;;;;;;;;;;;5048599;28;19925;-59
2021/10/21 03:00:10;;;;;;;;;;;;;;;;;;5045784;28;20007;-58
2021/10/21 03:02:37;;;;;;;;;;;;;;;;;;5049007;28;19925;-55
2021/10/21 03:05:04;;;;;;;;;;;;;;;;;;5049518;28;19929;-57
2021/10/21 03:07:31;;;;;;;;;;;;;;;;;;5049400;28;19925;-55
2021/10/21 03:09:58;;;;;;;;;;;;;;;;;;5048722;28;20403;-60
2021/10/21 03:12:24;;;;;;;;;;;;;;;;;;5042654;28;19925;-58
2021/10/21 03:14:51;;;;;;;;;;;;;;;;;;5048719;28;19925;-59
2021/10/21 03:17:18;;;;;;;;;;;;;;;;;;5047090;28;19929;-56
2021/10/21 03:19:46;;;;;;;;;;;;;;;;;;5047767;28;20423;-57
2021/10/21 03:22:13;;;;;;;;;;;;;;;;;;5048421;28;19968;-56
2021/10/21 03:24:40;;;;;;;;;;;;;;;;;;5047403;28;19925;-55
2021/10/21 03:27:07;;;;;;;;;;;;;;;;;;5047461;28;20376;-58
2021/10/21 03:29:35;;;;;;;;;;;;;;;;;;5049063;28;19928;-54
2021/10/21 03:32:02;;;;;;;;;;;;;;;;;;5048449;28;19925;-58
2021/10/21 03:34:30;;;;;;;;;;;;;;;;;;5046729;28;19925;-57
2021/10/21 03:36:57;;;;;;;;;;;;;;;;;;5049197;28;19976;-59
2021/10/21 03:39:24;;;;;;;;;;;;;;;;;;5045447;28;20309;-58
2021/10/21 03:41:51;;;;;;;;;;;;;;;;;;5046978;28;19935;-56
2021/10/21 03:44:18;;;;;;;;;;;;;;;;;;5074817;22;20311;-66
2021/10/21 03:46:45;;;;;;;;;;;;;;;;;;5069567;28;19925;-66
2021/10/21 03:49:12;;;;;;;;;;;;;;;;;;5075293;28;19924;-66
2021/10/21 03:51:39;;;;;;;;;;;;;;;;;;5072287;28;20435;-66
2021/10/21 03:54:06;;;;;;;;;;;;;;;;;;5072943;28;19928;-66
2021/10/21 03:56:33;;;;;;;;;;;;;;;;;;5070352;28;19932;-66
2021/10/21 03:59:00;;;;;;;;;;;;;;;;;;5071529;28;20043;-67
2021/10/21 04:01:28;;;;;;;;;;;;;;;;;;5072998;28;19925;-66
2021/10/21 04:03:55;;;;;;;;;;;;;;;;;;5069514;28;20367;-66
2021/10/21 04:06:22;;;;;;;;;;;;;;;;;;5072887;28;19924;-66
2021/10/21 04:08:49;;;;;;;;;;;;;;;;;;5072761;28;19924;-66
2021/10/21 04:11:16;;;;;;;;;;;;;;;;;;5069659;28;19950;-66
2021/10/21 04:13:43;;;;;;;;;;;;;;;;;;5069824;28;19929;-66
2021/10/21 04:16:09;;;;;;;;;;;;;;;;;;5072715;28;19932;-66
2021/10/21 04:18:36;;;;;;;;;;;;;;;;;;5070804;28;19928;-65
2021/10/21 04:21:03;;;;;;;;;;;;;;;;;;5070320;28;19932;-66
2021/10/21 04:23:30;;;;;;;;;;;;;;;;;;5070524;28;19924;-66
2021/10/21 04:25:57;;;;;;;;;;;;;;;;;;5069506;28;19947;-66
2021/10/21 04:28:24;;;;;;;;;;;;;;;;;;5071174;28;20386;-67
2021/10/21 04:30:51;;;;;;;;;;;;;;;;;;5069012;28;19925;-67
2021/10/21 04:33:18;;;;;;;;;;;;;;;;;;5070434;28;20414;-67
2021/10/21 04:35:45;;;;;;;;;;;;;;;;;;5066879;28;19928;-65
2021/10/21 04:38:12;;;;;;;;;;;;;;;;;;5069531;28;19925;-65
2021/10/21 04:40:39;;;;;;;;;;;;;;;;;;5068750;28;19933;-65
2021/10/21 04:43:06;;;;;;;;;;;;;;;;;;5069997;28;19924;-66
2021/10/21 04:45:33;;;;;;;;;;;;;;;;;;5072162;28;19966;-65
2021/10/21 04:48:00;;;;;;;;;;;;;;;;;;5070158;28;19935;-65
2021/10/21 04:50:27;;;;;;;;;;;;;;;;;;5076150;28;19928;-67
2021/10/21 04:52:54;;;;;;;;;;;;;;;;;;5077826;28;19925;-66
2021/10/21 04:55:21;;;;;;;;;;;;;;;;;;5074721;28;19924;-67
2021/10/21 04:57:48;;;;;;;;;;;;;;;;;;5075816;28;19929;-66
2021/10/21 05:00:15;;;;;;;;;;;;;;;;;;5075343;28;20403;-66
2021/10/21 05:02:42;;;;;;;;;;;;;;;;;;5073257;28;19931;-66
2021/10/21 05:05:09;;;;;;;;;;;;;;;;;;5072475;28;20031;-66
2021/10/21 05:07:36;;;;;;;;;;;;;;;;;;5074558;28;19933;-67
2021/10/21 05:10:03;;;;;;;;;;;;;;;;;;5070894;28;20296;-67
2021/10/21 05:12:30;;;;;;;;;;;;;;;;;;5068597;28;19931;-65
2021/10/21 05:14:57;;;;;;;;;;;;;;;;;;5066788;28;20311;-65
2021/10/21 05:17:24;;;;;;;;;;;;;;;;;;5071772;28;19925;-66
2021/10/21 05:19:51;;;;;;;;;;;;;;;;;;5075312;28;19939;-66
2021/10/21 05:22:18;;;;;;;;;;;;;;;;;;5069429;28;19931;-67
2021/10/21 05:24:46;;;;;;;;;;;;;;;;;;5071077;28;19939;-67
2021/10/21 05:27:13;;;;;;;;;;;;;;;;;;5068136;28;19928;-67
2021/10/21 05:29:40;;;;;;;;;;;;;;;;;;5074049;28;20023;-67
2021/10/21 05:32:07;;;;;;;;;;;;;;;;;;5076108;28;20650;-67
2021/10/21 05:34:34;;;;;;;;;;;;;;;;;;5079460;28;19970;-66
2021/10/21 05:37:02;;;;;;;;;;;;;;;;;;5076070;28;19935;-66
2021/10/21 05:39:29;;;;;;;;;;;;;;;;;;5073641;28;19967;-68
2021/10/21 05:41:55;;;;;;;;;;;;;;;;;;5077675;28;19951;-65
2021/10/21 05:44:23;;;;;;;;;;;;;;;;;;5074507;28;19935;-67
2021/10/21 05:46:50;;;;;;;;;;;;;;;;;;5078006;28;19928;-68
2021/10/21 05:49:17;;;;;;;;;;;;;;;;;;5071333;28;20361;-66
2021/10/21 05:51:44;;;;;;;;;;;;;;;;;;5075353;28;19924;-66
2021/10/21 05:54:11;;;;;;;;;;;;;;;;;;5072151;28;19998;-66
2021/10/21 05:56:38;;;;;;;;;;;;;;;;;;5073214;28;19928;-66
2021/10/21 05:59:05;;;;;;;;;;;;;;;;;;5078992;28;20029;-68
2021/10/21 06:01:32;;;;;;;;;;;;;;;;;;5071349;28;19931;-67
2021/10/21 06:03:59;;;;;;;;;;;;;;;;;;5070848;28;19931;-66
2021/10/21 06:06:26;;;;;;;;;;;;;;;;;;5072747;28;19939;-66
2021/10/21 06:08:53;;;;;;;;;;;;;;;;;;5075406;28;19929;-66
2021/10/21 06:11:20;;;;;;;;;;;;;;;;;;5075035;28;19939;-66
2021/10/21 06:13:47;;;;;;;;;;;;;;;;;;5069069;28;19940;-66
2021/10/21 06:16:14;;;;;;;;;;;;;;;;;;5073037;28;19933;-67
2021/10/21 06:18:41;;;;;;;;;;;;;;;;;;5074430;28;19924;-67
2021/10/21 06:21:10;;;;;;;;;;;;;;;;;;5072506;28;19940;-67
2021/10/21 06:23:37;;;;;;;;;;;;;;;;;;5069410;28;19925;-67
2021/10/21 06:26:04;;;;;;;;;;;;;;;;;;5076860;28;19924;-66
2021/10/21 06:28:31;;;;;;;;;;;;;;;;;;5077820;28;19924;-67
2021/10/21 06:30:58;;;;;;;;;;;;;;;;;;5071553;28;19924;-66
2021/10/21 06:33:25;;;;;;;;;;;;;;;;;;5075358;28;20297;-67
2021/10/21 06:35:52;;;;;;;;;;;;;;;;;;5074345;28;19930;-67
2021/10/21 06:38:19;;;;;;;;;;;;;;;;;;5070407;28;20000;-67
2021/10/21 06:40:46;;;;;;;;;;;;;;;;;;5069573;28;19925;-67
2021/10/21 06:43:13;;;;;;;;;;;;;;;;;;5071316;28;19925;-66
2021/10/21 06:45:40;;;;;;;;;;;;;;;;;;5071012;28;19924;-67
2021/10/21 06:48:07;;;;;;;;;;;;;;;;;;5073614;28;20287;-67
2021/10/21 06:50:34;;;;;;;;;;;;;;;;;;5071057;28;20376;-66
2021/10/21 06:53:01;;;;;;;;;;;;;;;;;;5074873;28;19930;-67
2021/10/21 06:55:28;;;;;;;;;;;;;;;;;;5074505;28;19943;-67
2021/10/21 06:57:56;;;;;;;;;;;;;;;;;;5071746;28;19929;-66
2021/10/21 07:00:25;;;;;;;;;;;;;;;;;;5071249;28;19924;-65
2021/10/21 07:02:52;;;;;;;;;;;;;;;;;;5074362;28;19934;-67
2021/10/21 07:05:21;;;;;;;;;;;;;;;;;;5070119;28;19970;-66
2021/10/21 07:07:48;;;;;;;;;;;;;;;;;;5068611;28;19934;-67
2021/10/21 07:10:15;;;;;;;;;;;;;;;;;;5074849;28;19931;-66
2021/10/21 07:12:45;;;;;;;;;;;;;;;;;;5073990;28;20012;-66
2021/10/21 07:15:12;;;;;;;;;;;;;;;;;;5069964;28;20452;-67
2021/10/21 07:17:40;;;;;;;;;;;;;;;;;;5071524;28;19924;-67
2021/10/21 07:20:07;;;;;;;;;;;;;;;;;;5072902;28;19928;-66
2021/10/21 07:22:34;;;;;;;;;;;;;;;;;;5068798;28;19931;-67
2021/10/21 07:25:01;;;;;;;;;;;;;;;;;;5074825;28;20031;-66
2021/10/21 07:27:28;;;;;;;;;;;;;;;;;;5074659;28;19924;-66
2021/10/21 07:29:55;;;;;;;;;;;;;;;;;;5073769;28;19935;-67
2021/10/21 07:32:22;;;;;;;;;;;;;;;;;;5071794;28;19991;-66
2021/10/21 07:34:49;;;;;;;;;;;;;;;;;;5072666;28;19924;-67
2021/10/21 07:37:16;;;;;;;;;;;;;;;;;;5073486;28;19932;-67
2021/10/21 07:39:43;;;;;;;;;;;;;;;;;;5066171;28;19924;-67
2021/10/21 07:42:10;;;;;;;;;;;;;;;;;;5066745;28;19925;-67
2021/10/21 07:44:37;;;;;;;;;;;;;;;;;;5068759;28;20356;-67
2021/10/21 07:47:04;;;;;;;;;;;;;;;;;;5066835;28;20303;-66
2021/10/21 07:49:31;;;;;;;;;;;;;;;;;;5066740;28;19946;-65
2021/10/21 07:51:57;;;;;;;;;;;;;;;;;;5067483;28;19971;-66
2021/10/21 07:54:27;;;;;;;;;;;;;;;;;;5065836;28;19925;-67
2021/10/21 07:56:54;;;;;;;;;;;;;;;;;;5071335;28;20614;-66
2021/10/21 07:59:20;;;;;;;;;;;;;;;;;;5067210;28;20300;-67
2021/10/21 08:01:47;;;;;;;;;;;;;;;;;;5061770;28;19928;-66
2021/10/21 08:04:15;;;;;;;;;;;;;;;;;;5067434;28;19931;-69
2021/10/21 08:06:42;;;;;;;;;;;;;;;;;;5064374;28;19936;-67
2021/10/21 08:09:09;;;;;;;;;;;;;;;;;;5069086;28;19970;-68
2021/10/21 08:11:35;;;;;;;;;;;;;;;;;;5070386;28;20011;-68
2021/10/21 08:14:02;;;;;;;;;;;;;;;;;;5068773;28;20330;-68
2021/10/21 08:16:29;;;;;;;;;;;;;;;;;;5063974;28;19939;-66
2021/10/21 08:18:56;;;;;;;;;;;;;;;;;;5066686;28;19939;-67
2021/10/21 08:21:23;;;;;;;;;;;;;;;;;;5068633;28;19940;-67
2021/10/21 08:23:54;;;;;;;;;;;;;;;;;;5060368;28;19925;-67
2021/10/21 08:26:21;;;;;;;;;;;;;;;;;;5065904;28;19931;-68
2021/10/21 08:28:48;;;;;;;;;;;;;;;;;;5066380;28;20219;-68
2021/10/21 08:31:15;;;;;;;;;;;;;;;;;;5066328;28;19960;-67
2021/10/21 08:33:42;;;;;;;;;;;;;;;;;;5069675;28;19934;-68
2021/10/21 08:36:11;;;;;;;;;;;;;;;;;;5067415;28;20384;-66
2021/10/21 08:38:38;;;;;;;;;;;;;;;;;;5065455;28;19958;-67
2021/10/21 08:41:08;;;;;;;;;;;;;;;;;;5068356;28;19929;-66
2021/10/21 08:43:36;;;;;;;;;;;;;;;;;;5070087;28;19932;-67
2021/10/21 08:46:03;;;;;;;;;;;;;;;;;;5069999;28;19924;-68
2021/10/21 08:48:30;;;;;;;;;;;;;;;;;;5069294;28;19931;-67
2021/10/21 08:50:57;;;;;;;;;;;;;;;;;;5065553;28;20460;-67
2021/10/21 08:53:24;;;;;;;;;;;;;;;;;;5067045;28;19935;-67
2021/10/21 08:55:51;;;;;;;;;;;;;;;;;;5066805;28;20019;-67
2021/10/21 08:58:18;;;;;;;;;;;;;;;;;;5067059;28;19982;-66
2021/10/21 09:00:52;;;;;;;;;;;;;;;;;;5061455;28;19924;-65
2021/10/21 09:03:26;;;;;;;;;;;;;;;;;;5063502;28;19928;-65
2021/10/21 09:05:56;;;;;;;;;;;;;;;;;;5069963;28;19925;-66
2021/10/21 09:08:23;;;;;;;;;;;;;;;;;;5068151;28;20609;-67
2021/10/21 09:10:53;;;;;;;;;;;;;;;;;;5067860;28;19924;-67
2021/10/21 09:13:21;;;;;;;;;;;;;;;;;;5063459;28;20448;-66
2021/10/21 09:15:48;;;;;;;;;;;;;;;;;;5068675;28;19929;-67
2021/10/21 09:18:15;;;;;;;;;;;;;;;;;;5069196;28;20316;-67
2021/10/21 09:20:42;;;;;;;;;;;;;;;;;;5069410;28;20218;-67
2021/10/21 09:23:09;;;;;;;;;;;;;;;;;;5066642;28;20376;-66
2021/10/21 09:25:38;;;;;;;;;;;;;;;;;;5057221;28;20558;-65
2021/10/21 09:28:05;;;;;;;;;;;;;;;;;;5067227;28;19924;-67
2021/10/21 09:30:32;;;;;;;;;;;;;;;;;;5068259;28;19928;-66
2021/10/21 09:32:59;;;;;;;;;;;;;;;;;;5066353;28;19939;-66
2021/10/21 09:35:26;;;;;;;;;;;;;;;;;;5068230;28;19931;-68
2021/10/21 09:37:53;;;;;;;;;;;;;;;;;;5070076;28;20376;-66
2021/10/21 09:40:22;;;;;;;;;;;;;;;;;;5069648;28;20019;-66
2021/10/21 09:42:49;;;;;;;;;;;;;;;;;;5102100;22;19938;31
2021/10/21 09:45:16;;;;;;;;;;;;;;;;;;5045131;28;20031;-58
2021/10/21 09:47:44;;;;;;;;;;;;;;;;;;5049458;28;20012;-60
2021/10/21 09:50:11;;;;;;;;;;;;;;;;;;5048324;28;19992;-59
2021/10/21 09:52:38;;;;;;;;;;;;;;;;;;5041372;28;19925;-56
2021/10/21 09:55:05;;;;;;;;;;;;;;;;;;5051143;28;20164;-58
2021/10/21 09:57:32;;;;;;;;;;;;;;;;;;5044523;28;19925;-59
2021/10/21 10:00:01;;;;;;;;;;;;;;;;;;5045965;28;19925;-60
2021/10/21 10:02:28;;;;;;;;;;;;;;;;;;5044814;28;19925;-59
2021/10/21 10:04:55;;;;;;;;;;;;;;;;;;5045493;28;19960;-58
2021/10/21 10:07:22;;;;;;;;;;;;;;;;;;5047020;28;19996;-59
2021/10/21 10:09:48;;;;;;;;;;;;;;;;;;5048477;28;19961;-59
2021/10/21 10:12:16;;;;;;;;;;;;;;;;;;5049990;28;19988;-57
2021/10/21 10:14:43;;;;;;;;;;;;;;;;;;5048740;28;19932;-59
2021/10/21 10:17:10;;;;;;;;;;;;;;;;;;5048923;28;19929;-59
2021/10/21 10:19:38;;;;;;;;;;;;;;;;;;5051206;28;19964;-59
2021/10/21 10:22:05;;;;;;;;;;;;;;;;;;5045379;28;19925;-60
2021/10/21 10:24:32;;;;;;;;;;;;;;;;;;5046467;28;19931;-59
2021/10/21 10:26:59;;;;;;;;;;;;;;;;;;5046282;28;19926;-60
2021/10/21 10:29:26;;;;;;;;;;;;;;;;;;5049843;28;19925;-59
2021/10/21 10:31:56;;;;;;;;;;;;;;;;;;5052733;28;19968;-59
2021/10/21 10:34:23;;;;;;;;;;;;;;;;;;5041841;28;19936;-60
2021/10/21 10:36:50;;;;;;;;;;;;;;;;;;5046421;28;19935;-58
2021/10/21 10:39:17;;;;;;;;;;;;;;;;;;5041139;28;19928;-60
2021/10/21 10:41:45;;;;;;;;;;;;;;;;;;5042909;28;19979;-60
2021/10/21 10:44:12;;;;;;;;;;;;;;;;;;5044480;28;19925;-61
2021/10/21 10:46:39;;;;;;;;;;;;;;;;;;5040015;28;19932;-56
2021/10/21 10:49:06;;;;;;;;;;;;;;;;;;5046856;28;20004;-56
2021/10/21 10:51:33;;;;;;;;;;;;;;;;;;5047664;28;20404;-57
2021/10/21 10:54:00;;;;;;;;;;;;;;;;;;5046707;28;19984;-58
2021/10/21 10:56:27;;;;;;;;;;;;;;;;;;5042125;28;19925;-58
2021/10/21 10:58:54;;;;;;;;;;;;;;;;;;5046553;28;19929;-58
2021/10/21 11:01:21;;;;;;;;;;;;;;;;;;5041205;28;20154;-57
2021/10/21 11:03:48;;;;;;;;;;;;;;;;;;5042283;28;19925;-58
2021/10/21 11:06:15;;;;;;;;;;;;;;;;;;5044900;28;19925;-58
2021/10/21 11:08:42;;;;;;;;;;;;;;;;;;5047136;28;19933;-57
2021/10/21 11:11:09;;;;;;;;;;;;;;;;;;5051722;28;19947;-57
2021/10/21 11:13:36;;;;;;;;;;;;;;;;;;5044321;28;19959;-59
2021/10/21 11:16:06;;;;;;;;;;;;;;;;;;5042380;28;19967;-58
2021/10/21 11:18:34;;;;;;;;;;;;;;;;;;5043696;28;19956;-59
2021/10/21 11:21:02;;;;;;;;;;;;;;;;;;5045041;28;19948;-58
2021/10/21 11:23:29;;;;;;;;;;;;;;;;;;5046633;28;20220;-59
2021/10/21 11:26:01;;;;;;;;;;;;;;;;;;5047737;28;19948;-60
2021/10/21 11:28:28;;;;;;;;;;;;;;;;;;5040870;28;19925;-59
2021/10/21 11:30:55;;;;;;;;;;;;;;;;;;5045274;28;20015;-59
2021/10/21 11:33:22;;;;;;;;;;;;;;;;;;5042369;28;20063;-59
2021/10/21 11:35:51;;;;;;;;;;;;;;;;;;5039839;28;19979;-61
2021/10/21 11:38:18;;;;;;;;;;;;;;;;;;5053819;28;19971;-58
2021/10/21 11:40:45;;;;;;;;;;;;;;;;;;5040579;28;19964;-57
2021/10/21 11:43:13;;;;;;;;;;;;;;;;;;5045435;28;20381;-61
2021/10/21 11:45:40;;;;;;;;;;;;;;;;;;5053054;28;19952;-58
2021/10/21 11:48:07;;;;;;;;;;;;;;;;;;5053202;28;20012;-59
2021/10/21 11:50:34;;;;;;;;;;;;;;;;;;5043884;28;19925;-56
2021/10/21 11:53:04;;;;;;;;;;;;;;;;;;5044152;28;19952;-59
2021/10/21 11:55:31;;;;;;;;;;;;;;;;;;5043383;28;19925;-57
2021/10/21 11:57:58;;;;;;;;;;;;;;;;;;5042698;28;19925;-56
2021/10/21 12:00:25;;;;;;;;;;;;;;;;;;5041311;28;19932;-57
2021/10/21 12:02:52;;;;;;;;;;;;;;;;;;5039448;28;19925;-57
2021/10/21 12:05:19;;;;;;;;;;;;;;;;;;5042425;28;19980;-58
2021/10/21 12:07:46;;;;;;;;;;;;;;;;;;5043247;28;20013;-59
2021/10/21 12:10:13;;;;;;;;;;;;;;;;;;5046240;28;19975;-56
2021/10/21 12:12:45;;;;;;;;;;;;;;;;;;5045005;28;19959;-59
2021/10/21 12:15:12;;;;;;;;;;;;;;;;;;5047959;28;20364;-60
2021/10/21 12:17:39;;;;;;;;;;;;;;;;;;5041165;28;20008;-59
2021/10/21 12:20:07;;;;;;;;;;;;;;;;;;5053880;28;19989;-59
2021/10/21 12:22:37;;;;;;;;;;;;;;;;;;5047241;28;19969;-59
2021/10/21 12:25:06;;;;;;;;;;;;;;;;;;5047881;28;19937;-59
2021/10/21 12:27:33;;;;;;;;;;;;;;;;;;5042748;28;19925;-58
2021/10/21 12:30:00;;;;;;;;;;;;;;;;;;5047765;28;19980;-59
2021/10/21 12:32:27;;;;;;;;;;;;;;;;;;5046777;28;19972;-59
2021/10/21 12:34:54;;;;;;;;;;;;;;;;;;5043424;28;19933;-57
2021/10/21 12:37:22;;;;;;;;;;;;;;;;;;5047204;28;19925;-57
2021/10/21 12:39:49;;;;;;;;;;;;;;;;;;5046938;28;19951;-59
2021/10/21 12:42:16;;;;;;;;;;;;;;;;;;5034482;28;20012;-59
2021/10/21 12:44:44;;;;;;;;;;;;;;;;;;5045464;28;19977;-57
2021/10/21 12:47:12;;;;;;;;;;;;;;;;;;5046234;28;19979;-58
2021/10/21 12:49:39;;;;;;;;;;;;;;;;;;5043568;28;19967;-57
2021/10/21 12:52:06;;;;;;;;;;;;;;;;;;5049602;28;19925;-57
2021/10/21 12:54:35;;;;;;;;;;;;;;;;;;5042362;28;19960;-58
2021/10/21 12:57:02;;;;;;;;;;;;;;;;;;5047761;28;19952;-59
2021/10/21 12:59:29;;;;;;;;;;;;;;;;;;5052126;28;20176;-58
2021/10/21 13:01:57;;;;;;;;;;;;;;;;;;5046052;28;19925;-55
2021/10/21 13:04:24;;;;;;;;;;;;;;;;;;5053948;28;19934;-58
2021/10/21 13:06:51;;;;;;;;;;;;;;;;;;5045800;28;19949;-58
2021/10/21 13:09:18;;;;;;;;;;;;;;;;;;5038930;28;19925;-58
2021/10/21 13:11:45;;;;;;;;;;;;;;;;;;5032686;28;20459;-56
2021/10/21 13:14:12;;;;;;;;;;;;;;;;;;5039438;28;19932;-58
2021/10/21 13:16:39;;;;;;;;;;;;;;;;;;5035852;28;19925;-57
2021/10/21 13:19:09;;;;;;;;;;;;;;;;;;5036844;28;20019;-58
2021/10/21 13:21:36;;;;;;;;;;;;;;;;;;5028456;28;20309;-58
2021/10/21 13:24:03;;;;;;;;;;;;;;;;;;5029721;28;19926;-57
2021/10/21 13:26:30;;;;;;;;;;;;;;;;;;5034603;28;20393;-57
2021/10/21 13:28:57;;;;;;;;;;;;;;;;;;5029295;28;19972;-58
2021/10/21 13:31:24;;;;;;;;;;;;;;;;;;5028350;28;19925;-57
2021/10/21 13:33:51;;;;;;;;;;;;;;;;;;5037777;28;19932;-59
2021/10/21 13:36:18;;;;;;;;;;;;;;;;;;5038490;28;19931;-56
2021/10/21 13:38:45;;;;;;;;;;;;;;;;;;5038856;28;19964;-58
2021/10/21 13:41:12;;;;;;;;;;;;;;;;;;5035026;28;20408;-58
2021/10/21 13:43:39;;;;;;;;;;;;;;;;;;5035318;28;19932;-59
2021/10/21 13:46:06;;;;;;;;;;;;;;;;;;5032681;28;19933;-57
2021/10/21 13:48:33;;;;;;;;;;;;;;;;;;5035082;28;19932;-59
2021/10/21 13:51:00;;;;;;;;;;;;;;;;;;5038736;28;19925;-59
2021/10/21 13:53:26;;;;;;;;;;;;;;;;;;5043689;28;19956;-59
2021/10/21 13:55:53;;;;;;;;;;;;;;;;;;5037786;28;19925;-58
2021/10/21 13:58:20;;;;;;;;;;;;;;;;;;5040530;28;19929;-60
2021/10/21 14:00:47;;;;;;;;;;;;;;;;;;5040355;28;20296;-57
2021/10/21 14:03:17;;;;;;;;;;;;;;;;;;5040111;28;20188;-59
2021/10/21 14:05:45;;;;;;;;;;;;;;;;;;5035855;28;20448;-59
2021/10/21 14:08:13;;;;;;;;;;;;;;;;;;5037700;28;19929;-57
2021/10/21 14:10:41;;;;;;;;;;;;;;;;;;5036810;28;19931;-56
2021/10/21 14:13:08;;;;;;;;;;;;;;;;;;5038415;28;20282;-59
2021/10/21 14:15:35;;;;;;;;;;;;;;;;;;5037793;28;20398;-60
2021/10/21 14:18:02;;;;;;;;;;;;;;;;;;5036250;28;19961;-57
2021/10/21 14:20:29;;;;;;;;;;;;;;;;;;5036597;28;20329;-60
2021/10/21 14:22:56;;;;;;;;;;;;;;;;;;5036940;28;19925;-59
2021/10/21 14:25:23;;;;;;;;;;;;;;;;;;5032864;28;20029;-58
2021/10/21 14:27:50;;;;;;;;;;;;;;;;;;5032967;28;19964;-59
2021/10/21 14:30:17;;;;;;;;;;;;;;;;;;5022713;28;19925;-59
2021/10/21 14:32:44;;;;;;;;;;;;;;;;;;5035169;28;20024;-58
2021/10/21 14:35:13;;;;;;;;;;;;;;;;;;5032166;28;20376;-59
2021/10/21 14:37:41;;;;;;;;;;;;;;;;;;5031477;28;19955;-56
2021/10/21 14:40:08;;;;;;;;;;;;;;;;;;5038018;28;19925;-59
2021/10/21 14:42:35;;;;;;;;;;;;;;;;;;5040808;28;19963;-59
2021/10/21 14:45:02;;;;;;;;;;;;;;;;;;5035125;28;19941;-57
2021/10/21 14:47:29;;;;;;;;;;;;;;;;;;5039021;28;19976;-58
2021/10/21 14:49:56;;;;;;;;;;;;;;;;;;5037510;28;20243;-56
2021/10/21 14:52:23;;;;;;;;;;;;;;;;;;5031811;28;19947;-60
2021/10/21 14:54:49;;;;;;;;;;;;;;;;;;5026271;28;19964;-60
2021/10/21 14:57:16;;;;;;;;;;;;;;;;;;5030817;28;19925;-60
2021/10/21 14:59:43;;;;;;;;;;;;;;;;;;5031727;28;20028;-60
2021/10/21 15:02:10;;;;;;;;;;;;;;;;;;5033371;28;19925;-60
2021/10/21 15:04:39;;;;;;;;;;;;;;;;;;5032616;28;19925;-60
2021/10/21 15:10:08;;;;;;;;;;;;;;;;;;5032609;28;20027;-59
2021/10/21 15:23:38;;;;;;;;;;;;;;;;;;5030018;28;19963;-60
2021/10/21 15:26:05;;;;;;;;;;;;;;;;;;5037218;28;19932;-59
2021/10/21 15:28:32;;;;;;;;;;;;;;;;;;5033725;28;20391;-60
2021/10/21 15:30:59;;;;;;;;;;;;;;;;;;5030192;28;20369;-60
2021/10/21 15:33:26;;;;;;;;;;;;;;;;;;5026943;28;20008;-60
2021/10/21 15:35:53;;;;;;;;;;;;;;;;;;5038293;28;19925;-59
2021/10/21 15:38:22;;;;;;;;;;;;;;;;;;5031708;28;19971;-58
2021/10/21 15:40:50;;;;;;;;;;;;;;;;;;5036751;28;20325;-59
2021/10/21 15:43:17;;;;;;;;;;;;;;;;;;5040642;28;19925;-58
2021/10/21 15:45:48;;;;;;;;;;;;;;;;;;5048903;28;19925;-60
2021/10/21 15:48:22;;;;;;;;;;;;;;;;;;5045380;28;19931;-61
2021/10/21 15:50:58;;;;;;;;;;;;;;;;;;5046353;28;20016;-61
2021/10/21 16:10:19;;;;;;;;;;;;;;;;;;5047110;28;19917;-58
2021/10/21 16:12:46;;;;;;;;;;;;;;;;;;5046761;28;19929;-60
2021/10/21 16:15:15;;;;;;;;;;;;;;;;;;5047925;28;19925;-60
2021/10/21 16:17:44;;;;;;;;;;;;;;;;;;5046026;28;19988;-60
2021/10/21 16:20:13;;;;;;;;;;;;;;;;;;5045780;28;19987;-58
2021/10/21 16:22:46;;;;;;;;;;;;;;;;;;5048223;28;19940;-60
2021/10/21 16:25:31;;;;;;;;;;;;;;;;;;5052676;28;20336;-60
2021/10/21 16:27:58;;;;;;;;;;;;;;;;;;5050339;28;19925;-59
2021/10/21 16:30:25;;;;;;;;;;;;;;;;;;5046219;28;19968;-60
2021/10/21 16:32:52;;;;;;;;;;;;;;;;;;5046969;28;19932;-59
2021/10/21 16:35:19;;;;;;;;;;;;;;;;;;5040302;28;19932;-60
2021/10/21 16:37:46;;;;;;;;;;;;;;;;;;5044474;28;20234;-58
2021/10/21 16:40:13;;;;;;;;;;;;;;;;;;5044646;28;19971;-60
2021/10/21 16:42:42;;;;;;;;;;;;;;;;;;5044399;28;19952;-58
2021/10/21 16:45:09;;;;;;;;;;;;;;;;;;5049650;28;19929;-60
2021/10/21 16:47:36;;;;;;;;;;;;;;;;;;5046118;28;19933;-58
2021/10/21 16:50:03;;;;;;;;;;;;;;;;;;5050195;28;19925;-60
2021/10/21 16:52:30;;;;;;;;;;;;;;;;;;5043878;28;19966;-60
2021/10/21 16:54:57;;;;;;;;;;;;;;;;;;5046803;28;19933;-59
2021/10/21 16:57:24;;;;;;;;;;;;;;;;;;5046089;28;20008;-60
2021/10/21 16:59:55;;;;;;;;;;;;;;;;;;5050277;28;20452;-60
2021/10/21 17:02:22;;;;;;;;;;;;;;;;;;5052476;28;19953;-60
2021/10/21 17:04:49;;;;;;;;;;;;;;;;;;5042612;28;19925;-60
2021/10/21 17:07:16;;;;;;;;;;;;;;;;;;5042757;28;19929;-59
2021/10/21 17:09:44;;;;;;;;;;;;;;;;;;5043839;28;19988;-59
2021/10/21 17:12:11;;;;;;;;;;;;;;;;;;5040887;28;19933;-60
2021/10/21 17:14:38;;;;;;;;;;;;;;;;;;5046689;28;19967;-60
2021/10/21 17:17:05;;;;;;;;;;;;;;;;;;5044691;28;19925;-60